sensor_id;sensor_type;location;lat;lon;timestamp;temperature;humidity
24049;DHT22;12250;50.956;4.746;2022-11-20T00:01:14;4.70;99.90
24049;DHT22;12250;50.956;4.746;2022-11-20T00:03:41;4.70;99.90
24049;DHT22;12250;50.956;4.746;2022-11-20T00:06:11;4.70;99.90
24049;DHT22;12250;50.956;4.746;2022-11-20T00:08:37;4.70;99.90
24049;DHT22;12250;50.956;4.746;2022-11-20T00:11:10;4.60;99.90
24049;DHT22;12250;50.956;4.746;2022-11-20T00:13:36;4.60;99.90
24049;DHT22;12250;50.956;4.746;2022-11-20T00:16:04;4.70;99.90
24049;DHT22;12250;50.956;4.746;2022-11-20T00:18:30;4.70;99.90
24049;DHT22;12250;50.956;4.746;2022-11-20T00:21:04;4.70;99.90
24049;DHT22;12250;50.956;4.746;2022-11-20T00:23:30;4.70;99.90
24049;DHT22;12250;50.956;4.746;2022-11-20T00:25:56;4.70;99.90
24049;DHT22;12250;50.956;4.746;2022-11-20T00:28:22;4.70;99.90
24049;DHT22;12250;50.956;4.746;2022-11-20T00:30:47;4.70;99.90
24049;DHT22;12250;50.956;4.746;2022-11-20T00:33:13;4.70;99.90
24049;DHT22;12250;50.956;4.746;2022-11-20T00:35:38;4.60;99.90
24049;DHT22;12250;50.956;4.746;2022-11-20T00:38:04;4.60;99.90
24049;DHT22;12250;50.956;4.746;2022-11-20T00:40:30;4.60;99.90
24049;DHT22;12250;50.956;4.746;2022-11-20T00:42:55;4.70;99.90
24049;DHT22;12250;50.956;4.746;2022-11-20T00:45:21;4.70;99.90
24049;DHT22;12250;50.956;4.746;2022-11-20T00:47:46;4.70;99.90
24049;DHT22;12250;50.956;4.746;2022-11-20T00:50:12;4.70;99.90
24049;DHT22;12250;50.956;4.746;2022-11-20T00:52:38;4.80;99.90
24049;DHT22;12250;50.956;4.746;2022-11-20T00:55:04;4.80;99.90
24049;DHT22;12250;50.956;4.746;2022-11-20T00:57:29;4.80;99.90
24049;DHT22;12250;50.956;4.746;2022-11-20T00:59:55;4.80;99.90
24049;DHT22;12250;50.956;4.746;2022-11-20T01:02:21;4.80;99.90
24049;DHT22;12250;50.956;4.746;2022-11-20T01:04:46;4.80;99.90
24049;DHT22;12250;50.956;4.746;2022-11-20T01:07:12;4.90;99.90
24049;DHT22;12250;50.956;4.746;2022-11-20T01:09:37;4.90;99.90
24049;DHT22;12250;50.956;4.746;2022-11-20T01:12:03;4.90;99.90
24049;DHT22;12250;50.956;4.746;2022-11-20T01:14:29;4.90;99.90
24049;DHT22;12250;50.956;4.746;2022-11-20T01:16:54;4.90;99.90
24049;DHT22;12250;50.956;4.746;2022-11-20T01:19:22;4.90;99.90
24049;DHT22;12250;50.956;4.746;2022-11-20T01:21:53;4.80;99.90
24049;DHT22;12250;50.956;4.746;2022-11-20T01:24:20;4.90;99.90
24049;DHT22;12250;50.956;4.746;2022-11-20T01:26:48;4.80;99.90
24049;DHT22;12250;50.956;4.746;2022-11-20T01:29:16;4.70;99.90
24049;DHT22;12250;50.956;4.746;2022-11-20T01:31:42;4.60;99.90
24049;DHT22;12250;50.956;4.746;2022-11-20T01:34:13;4.60;99.90
24049;DHT22;12250;50.956;4.746;2022-11-20T01:36:39;4.70;99.90
24049;DHT22;12250;50.956;4.746;2022-11-20T01:39:16;4.70;99.90
24049;DHT22;12250;50.956;4.746;2022-11-20T01:41:43;4.70;99.90
24049;DHT22;12250;50.956;4.746;2022-11-20T01:44:54;4.80;99.90
24049;DHT22;12250;50.956;4.746;2022-11-20T01:47:33;4.80;99.90
24049;DHT22;12250;50.956;4.746;2022-11-20T01:50:11;4.80;99.90
24049;DHT22;12250;50.956;4.746;2022-11-20T01:53:00;4.80;99.90
24049;DHT22;12250;50.956;4.746;2022-11-20T01:55:37;4.90;99.90
24049;DHT22;12250;50.956;4.746;2022-11-20T01:58:03;4.90;99.90
24049;DHT22;12250;50.956;4.746;2022-11-20T02:00:30;4.90;99.90
24049;DHT22;12250;50.956;4.746;2022-11-20T02:03:00;4.90;99.90
24049;DHT22;12250;50.956;4.746;2022-11-20T02:08:05;4.90;99.90
24049;DHT22;12250;50.956;4.746;2022-11-20T02:10:32;4.90;99.90
24049;DHT22;12250;50.956;4.746;2022-11-20T02:12:58;4.90;99.90
24049;DHT22;12250;50.956;4.746;2022-11-20T02:15:43;4.90;99.90
24049;DHT22;12250;50.956;4.746;2022-11-20T02:18:10;4.90;99.90
24049;DHT22;12250;50.956;4.746;2022-11-20T02:20:36;4.90;99.90
24049;DHT22;12250;50.956;4.746;2022-11-20T02:25:57;4.90;99.90
24049;DHT22;12250;50.956;4.746;2022-11-20T02:28:24;4.90;99.90
24049;DHT22;12250;50.956;4.746;2022-11-20T02:30:49;4.90;99.90
24049;DHT22;12250;50.956;4.746;2022-11-20T02:33:15;4.90;99.90
24049;DHT22;12250;50.956;4.746;2022-11-20T02:35:43;4.90;99.90
24049;DHT22;12250;50.956;4.746;2022-11-20T02:38:09;4.90;99.90
24049;DHT22;12250;50.956;4.746;2022-11-20T02:40:35;4.80;99.90
24049;DHT22;12250;50.956;4.746;2022-11-20T02:43:01;4.80;99.90
24049;DHT22;12250;50.956;4.746;2022-11-20T02:45:27;4.80;99.90
24049;DHT22;12250;50.956;4.746;2022-11-20T02:47:52;4.80;99.90
24049;DHT22;12250;50.956;4.746;2022-11-20T02:50:18;4.80;99.90
24049;DHT22;12250;50.956;4.746;2022-11-20T02:52:44;4.80;99.90
24049;DHT22;12250;50.956;4.746;2022-11-20T02:55:10;4.80;99.90
24049;DHT22;12250;50.956;4.746;2022-11-20T02:57:36;4.80;99.90
24049;DHT22;12250;50.956;4.746;2022-11-20T03:00:04;4.80;99.90
24049;DHT22;12250;50.956;4.746;2022-11-20T03:02:30;4.80;99.90
24049;DHT22;12250;50.956;4.746;2022-11-20T03:04:56;4.70;99.90
24049;DHT22;12250;50.956;4.746;2022-11-20T03:07:22;4.80;99.90
24049;DHT22;12250;50.956;4.746;2022-11-20T03:09:47;4.70;99.90
24049;DHT22;12250;50.956;4.746;2022-11-20T03:12:13;4.80;99.90
24049;DHT22;12250;50.956;4.746;2022-11-20T03:14:39;4.80;99.90
24049;DHT22;12250;50.956;4.746;2022-11-20T03:17:05;4.80;99.90
24049;DHT22;12250;50.956;4.746;2022-11-20T03:19:30;4.80;99.90
24049;DHT22;12250;50.956;4.746;2022-11-20T03:21:56;4.80;99.90
24049;DHT22;12250;50.956;4.746;2022-11-20T03:24:22;4.80;99.90
24049;DHT22;12250;50.956;4.746;2022-11-20T03:26:47;4.80;99.90
24049;DHT22;12250;50.956;4.746;2022-11-20T03:29:13;4.70;99.90
24049;DHT22;12250;50.956;4.746;2022-11-20T03:31:40;4.70;99.90
24049;DHT22;12250;50.956;4.746;2022-11-20T03:34:07;4.70;99.90
24049;DHT22;12250;50.956;4.746;2022-11-20T03:36:33;4.80;99.90
24049;DHT22;12250;50.956;4.746;2022-11-20T03:38:59;4.80;99.90
24049;DHT22;12250;50.956;4.746;2022-11-20T03:41:28;4.80;99.90
24049;DHT22;12250;50.956;4.746;2022-11-20T03:43:59;4.80;99.90
24049;DHT22;12250;50.956;4.746;2022-11-20T03:46:26;4.80;99.90
24049;DHT22;12250;50.956;4.746;2022-11-20T03:48:53;4.80;99.90
24049;DHT22;12250;50.956;4.746;2022-11-20T03:51:21;4.80;99.90
24049;DHT22;12250;50.956;4.746;2022-11-20T03:53:48;4.90;99.90
24049;DHT22;12250;50.956;4.746;2022-11-20T03:56:16;4.80;99.90
24049;DHT22;12250;50.956;4.746;2022-11-20T03:58:42;4.90;99.90
24049;DHT22;12250;50.956;4.746;2022-11-20T04:03:35;4.80;99.90
24049;DHT22;12250;50.956;4.746;2022-11-20T04:06:28;4.80;99.90
24049;DHT22;12250;50.956;4.746;2022-11-20T04:08:56;4.90;99.90
24049;DHT22;12250;50.956;4.746;2022-11-20T04:11:33;4.80;99.90
24049;DHT22;12250;50.956;4.746;2022-11-20T04:14:01;4.70;99.90
24049;DHT22;12250;50.956;4.746;2022-11-20T04:16:29;4.70;99.90
24049;DHT22;12250;50.956;4.746;2022-11-20T04:18:57;4.70;99.90
24049;DHT22;12250;50.956;4.746;2022-11-20T04:21:24;4.70;99.90
24049;DHT22;12250;50.956;4.746;2022-11-20T04:23:50;4.70;99.90
24049;DHT22;12250;50.956;4.746;2022-11-20T04:26:16;4.70;99.90
24049;DHT22;12250;50.956;4.746;2022-11-20T04:28:42;4.70;99.90
24049;DHT22;12250;50.956;4.746;2022-11-20T04:33:36;4.80;99.90
24049;DHT22;12250;50.956;4.746;2022-11-20T04:36:16;4.80;99.90
24049;DHT22;12250;50.956;4.746;2022-11-20T04:38:43;4.80;99.90
24049;DHT22;12250;50.956;4.746;2022-11-20T04:41:14;4.90;99.90
24049;DHT22;12250;50.956;4.746;2022-11-20T04:43:40;4.90;99.90
24049;DHT22;12250;50.956;4.746;2022-11-20T04:46:06;4.90;99.90
24049;DHT22;12250;50.956;4.746;2022-11-20T04:48:32;4.80;99.90
24049;DHT22;12250;50.956;4.746;2022-11-20T04:50:57;4.80;99.90
24049;DHT22;12250;50.956;4.746;2022-11-20T04:53:27;4.80;99.90
24049;DHT22;12250;50.956;4.746;2022-11-20T04:55:59;4.80;99.90
24049;DHT22;12250;50.956;4.746;2022-11-20T04:58:25;4.70;99.90
24049;DHT22;12250;50.956;4.746;2022-11-20T05:00:51;4.70;99.90
24049;DHT22;12250;50.956;4.746;2022-11-20T05:03:17;4.60;99.90
24049;DHT22;12250;50.956;4.746;2022-11-20T05:05:42;4.50;99.90
24049;DHT22;12250;50.956;4.746;2022-11-20T05:08:08;4.40;99.90
24049;DHT22;12250;50.956;4.746;2022-11-20T05:10:33;4.30;99.90
24049;DHT22;12250;50.956;4.746;2022-11-20T05:12:59;4.20;99.90
24049;DHT22;12250;50.956;4.746;2022-11-20T05:15:25;4.20;99.90
24049;DHT22;12250;50.956;4.746;2022-11-20T05:17:51;4.10;99.90
24049;DHT22;12250;50.956;4.746;2022-11-20T05:20:18;4.10;99.90
24049;DHT22;12250;50.956;4.746;2022-11-20T05:22:44;4.20;99.90
24049;DHT22;12250;50.956;4.746;2022-11-20T05:25:10;4.20;99.90
24049;DHT22;12250;50.956;4.746;2022-11-20T05:27:36;4.10;99.90
24049;DHT22;12250;50.956;4.746;2022-11-20T05:30:02;4.10;99.90
24049;DHT22;12250;50.956;4.746;2022-11-20T05:32:28;4.20;99.90
24049;DHT22;12250;50.956;4.746;2022-11-20T05:34:53;4.20;99.90
24049;DHT22;12250;50.956;4.746;2022-11-20T05:37:19;4.30;99.90
24049;DHT22;12250;50.956;4.746;2022-11-20T05:39:45;4.40;99.90
24049;DHT22;12250;50.956;4.746;2022-11-20T05:42:10;4.40;99.90
24049;DHT22;12250;50.956;4.746;2022-11-20T05:44:55;4.50;99.90
24049;DHT22;12250;50.956;4.746;2022-11-20T05:47:20;4.50;99.90
24049;DHT22;12250;50.956;4.746;2022-11-20T05:49:46;4.60;99.90
24049;DHT22;12250;50.956;4.746;2022-11-20T05:52:11;4.60;99.90
24049;DHT22;12250;50.956;4.746;2022-11-20T05:54:37;4.60;99.90
24049;DHT22;12250;50.956;4.746;2022-11-20T05:57:03;4.50;99.90
24049;DHT22;12250;50.956;4.746;2022-11-20T05:59:28;4.50;99.90
24049;DHT22;12250;50.956;4.746;2022-11-20T06:01:54;4.50;99.90
24049;DHT22;12250;50.956;4.746;2022-11-20T06:04:19;4.50;99.90
24049;DHT22;12250;50.956;4.746;2022-11-20T06:06:45;4.50;99.90
24049;DHT22;12250;50.956;4.746;2022-11-20T06:09:11;4.50;99.90
24049;DHT22;12250;50.956;4.746;2022-11-20T06:11:36;4.50;99.90
24049;DHT22;12250;50.956;4.746;2022-11-20T06:14:02;4.50;99.90
24049;DHT22;12250;50.956;4.746;2022-11-20T06:16:28;4.60;99.90
24049;DHT22;12250;50.956;4.746;2022-11-20T06:18:53;4.60;99.90
24049;DHT22;12250;50.956;4.746;2022-11-20T06:21:20;4.60;99.90
24049;DHT22;12250;50.956;4.746;2022-11-20T06:23:47;4.50;99.90
24049;DHT22;12250;50.956;4.746;2022-11-20T06:26:18;4.40;99.90
24049;DHT22;12250;50.956;4.746;2022-11-20T06:28:44;4.30;99.90
24049;DHT22;12250;50.956;4.746;2022-11-20T06:31:12;4.20;99.90
24049;DHT22;12250;50.956;4.746;2022-11-20T06:33:39;4.00;99.90
24049;DHT22;12250;50.956;4.746;2022-11-20T06:36:04;3.90;99.90
24049;DHT22;12250;50.956;4.746;2022-11-20T06:38:30;3.90;99.90
24049;DHT22;12250;50.956;4.746;2022-11-20T06:40:56;3.80;99.90
24049;DHT22;12250;50.956;4.746;2022-11-20T06:43:22;3.90;99.90
24049;DHT22;12250;50.956;4.746;2022-11-20T06:45:56;4.00;99.90
24049;DHT22;12250;50.956;4.746;2022-11-20T06:48:23;4.10;99.90
24049;DHT22;12250;50.956;4.746;2022-11-20T06:50:49;4.10;99.90
24049;DHT22;12250;50.956;4.746;2022-11-20T06:53:15;4.30;99.90
24049;DHT22;12250;50.956;4.746;2022-11-20T06:55:45;4.30;99.90
24049;DHT22;12250;50.956;4.746;2022-11-20T06:58:11;4.30;99.90
24049;DHT22;12250;50.956;4.746;2022-11-20T07:00:37;4.40;99.90
24049;DHT22;12250;50.956;4.746;2022-11-20T07:03:04;4.40;99.90
24049;DHT22;12250;50.956;4.746;2022-11-20T07:05:30;4.50;99.90
24049;DHT22;12250;50.956;4.746;2022-11-20T07:07:56;4.50;99.90
24049;DHT22;12250;50.956;4.746;2022-11-20T07:10:22;4.60;99.90
24049;DHT22;12250;50.956;4.746;2022-11-20T07:12:52;4.80;99.90
24049;DHT22;12250;50.956;4.746;2022-11-20T07:15:18;4.70;99.90
24049;DHT22;12250;50.956;4.746;2022-11-20T07:17:44;4.80;99.90
24049;DHT22;12250;50.956;4.746;2022-11-20T07:20:10;4.90;99.90
24049;DHT22;12250;50.956;4.746;2022-11-20T07:22:36;4.90;99.90
24049;DHT22;12250;50.956;4.746;2022-11-20T07:25:02;5.00;99.90
24049;DHT22;12250;50.956;4.746;2022-11-20T07:27:29;5.00;99.90
24049;DHT22;12250;50.956;4.746;2022-11-20T07:29:55;5.00;99.90
24049;DHT22;12250;50.956;4.746;2022-11-20T07:32:21;5.10;99.90
24049;DHT22;12250;50.956;4.746;2022-11-20T07:34:47;5.10;99.90
24049;DHT22;12250;50.956;4.746;2022-11-20T07:37:13;5.10;99.90
24049;DHT22;12250;50.956;4.746;2022-11-20T07:39:38;5.20;99.90
24049;DHT22;12250;50.956;4.746;2022-11-20T07:42:05;5.20;99.90
24049;DHT22;12250;50.956;4.746;2022-11-20T07:44:31;5.40;99.90
24049;DHT22;12250;50.956;4.746;2022-11-20T07:46:57;5.50;99.90
24049;DHT22;12250;50.956;4.746;2022-11-20T07:49:22;5.50;99.90
24049;DHT22;12250;50.956;4.746;2022-11-20T07:51:50;5.60;99.90
24049;DHT22;12250;50.956;4.746;2022-11-20T07:54:16;5.60;99.90
24049;DHT22;12250;50.956;4.746;2022-11-20T07:56:42;5.70;99.90
24049;DHT22;12250;50.956;4.746;2022-11-20T07:59:07;5.70;99.90
24049;DHT22;12250;50.956;4.746;2022-11-20T08:01:33;5.80;99.90
24049;DHT22;12250;50.956;4.746;2022-11-20T08:03:59;5.80;99.90
24049;DHT22;12250;50.956;4.746;2022-11-20T08:06:24;5.90;99.90
24049;DHT22;12250;50.956;4.746;2022-11-20T08:08:51;5.90;99.90
24049;DHT22;12250;50.956;4.746;2022-11-20T08:11:16;6.00;99.90
24049;DHT22;12250;50.956;4.746;2022-11-20T08:14:20;6.10;99.90
24049;DHT22;12250;50.956;4.746;2022-11-20T08:16:48;6.10;99.90
24049;DHT22;12250;50.956;4.746;2022-11-20T08:19:15;6.20;99.90
24049;DHT22;12250;50.956;4.746;2022-11-20T08:21:41;6.20;99.90
24049;DHT22;12250;50.956;4.746;2022-11-20T08:24:08;6.20;99.90
24049;DHT22;12250;50.956;4.746;2022-11-20T08:26:34;6.30;99.90
24049;DHT22;12250;50.956;4.746;2022-11-20T08:29:00;6.30;99.90
24049;DHT22;12250;50.956;4.746;2022-11-20T08:31:27;6.50;99.90
24049;DHT22;12250;50.956;4.746;2022-11-20T08:33:53;6.60;99.90
24049;DHT22;12250;50.956;4.746;2022-11-20T08:36:20;6.60;99.90
24049;DHT22;12250;50.956;4.746;2022-11-20T08:38:53;6.70;99.90
24049;DHT22;12250;50.956;4.746;2022-11-20T08:41:19;6.80;99.90
24049;DHT22;12250;50.956;4.746;2022-11-20T08:43:54;6.80;99.90
24049;DHT22;12250;50.956;4.746;2022-11-20T08:46:21;6.90;99.90
24049;DHT22;12250;50.956;4.746;2022-11-20T08:48:46;6.80;99.90
24049;DHT22;12250;50.956;4.746;2022-11-20T08:51:13;6.70;99.90
24049;DHT22;12250;50.956;4.746;2022-11-20T08:53:39;6.90;99.90
24049;DHT22;12250;50.956;4.746;2022-11-20T08:56:05;6.90;99.90
24049;DHT22;12250;50.956;4.746;2022-11-20T08:58:31;6.80;99.90
24049;DHT22;12250;50.956;4.746;2022-11-20T09:00:57;6.80;99.90
24049;DHT22;12250;50.956;4.746;2022-11-20T09:03:23;7.00;99.90
24049;DHT22;12250;50.956;4.746;2022-11-20T09:05:48;7.10;99.90
24049;DHT22;12250;50.956;4.746;2022-11-20T09:08:14;7.30;99.90
24049;DHT22;12250;50.956;4.746;2022-11-20T09:10:40;7.20;99.90
24049;DHT22;12250;50.956;4.746;2022-11-20T09:13:05;7.30;99.90
24049;DHT22;12250;50.956;4.746;2022-11-20T09:15:31;7.40;99.90
24049;DHT22;12250;50.956;4.746;2022-11-20T09:17:59;7.50;99.90
24049;DHT22;12250;50.956;4.746;2022-11-20T09:20:26;7.50;99.90
24049;DHT22;12250;50.956;4.746;2022-11-20T09:22:52;7.60;99.90
24049;DHT22;12250;50.956;4.746;2022-11-20T09:25:18;7.60;99.90
24049;DHT22;12250;50.956;4.746;2022-11-20T09:27:44;7.70;99.90
24049;DHT22;12250;50.956;4.746;2022-11-20T09:30:12;7.80;99.90
24049;DHT22;12250;50.956;4.746;2022-11-20T09:32:42;7.90;99.90
24049;DHT22;12250;50.956;4.746;2022-11-20T09:35:08;7.80;99.90
24049;DHT22;12250;50.956;4.746;2022-11-20T09:37:34;7.90;99.90
24049;DHT22;12250;50.956;4.746;2022-11-20T09:40:00;8.00;99.90
24049;DHT22;12250;50.956;4.746;2022-11-20T09:43:10;8.10;99.90
24049;DHT22;12250;50.956;4.746;2022-11-20T09:46:14;8.20;99.90
24049;DHT22;12250;50.956;4.746;2022-11-20T09:48:59;8.20;99.90
24049;DHT22;12250;50.956;4.746;2022-11-20T09:51:58;8.30;99.90
24049;DHT22;12250;50.956;4.746;2022-11-20T09:54:34;8.30;99.90
24049;DHT22;12250;50.956;4.746;2022-11-20T09:57:05;8.40;99.90
24049;DHT22;12250;50.956;4.746;2022-11-20T09:59:42;8.40;99.90
24049;DHT22;12250;50.956;4.746;2022-11-20T10:10:03;8.80;99.90
24049;DHT22;12250;50.956;4.746;2022-11-20T10:15:32;8.90;99.90
24049;DHT22;12250;50.956;4.746;2022-11-20T10:26:17;9.10;99.90
24049;DHT22;12250;50.956;4.746;2022-11-20T10:31:35;9.20;99.90
24049;DHT22;12250;50.956;4.746;2022-11-20T10:34:28;9.30;99.90
24049;DHT22;12250;50.956;4.746;2022-11-20T10:36:58;9.40;99.90
24049;DHT22;12250;50.956;4.746;2022-11-20T10:39:42;9.50;99.90
24049;DHT22;12250;50.956;4.746;2022-11-20T10:42:17;9.70;99.90
24049;DHT22;12250;50.956;4.746;2022-11-20T10:44:52;9.80;99.90
24049;DHT22;12250;50.956;4.746;2022-11-20T10:47:28;9.90;99.90
24049;DHT22;12250;50.956;4.746;2022-11-20T10:49:58;9.80;99.90
24049;DHT22;12250;50.956;4.746;2022-11-20T10:52:36;9.90;99.90
24049;DHT22;12250;50.956;4.746;2022-11-20T10:55:30;10.00;99.90
24049;DHT22;12250;50.956;4.746;2022-11-20T11:00:24;10.10;99.90
24049;DHT22;12250;50.956;4.746;2022-11-20T11:02:53;10.20;99.90
24049;DHT22;12250;50.956;4.746;2022-11-20T11:05:38;10.30;99.90
24049;DHT22;12250;50.956;4.746;2022-11-20T11:08:10;10.50;99.90
24049;DHT22;12250;50.956;4.746;2022-11-20T11:11:00;10.60;99.90
24049;DHT22;12250;50.956;4.746;2022-11-20T11:13:29;10.70;99.90
24049;DHT22;12250;50.956;4.746;2022-11-20T11:15:56;10.80;99.90
24049;DHT22;12250;50.956;4.746;2022-11-20T11:20:52;11.00;99.90
24049;DHT22;12250;50.956;4.746;2022-11-20T11:23:37;11.10;99.90
24049;DHT22;12250;50.956;4.746;2022-11-20T11:26:06;11.20;99.90
24049;DHT22;12250;50.956;4.746;2022-11-20T11:28:32;11.20;99.90
24049;DHT22;12250;50.956;4.746;2022-11-20T11:30:59;11.20;99.90
24049;DHT22;12250;50.956;4.746;2022-11-20T11:33:26;11.40;99.90
24049;DHT22;12250;50.956;4.746;2022-11-20T11:35:59;11.60;99.90
24049;DHT22;12250;50.956;4.746;2022-11-20T11:38:34;11.60;99.90
24049;DHT22;12250;50.956;4.746;2022-11-20T11:41:01;11.50;99.90
24049;DHT22;12250;50.956;4.746;2022-11-20T11:43:30;11.60;99.90
24049;DHT22;12250;50.956;4.746;2022-11-20T11:46:23;11.30;99.90
24049;DHT22;12250;50.956;4.746;2022-11-20T11:52:03;11.20;99.90
24049;DHT22;12250;50.956;4.746;2022-11-20T12:00:10;11.10;99.90
24049;DHT22;12250;50.956;4.746;2022-11-20T12:05:36;11.30;99.90
24049;DHT22;12250;50.956;4.746;2022-11-20T12:08:44;11.40;99.90
24049;DHT22;12250;50.956;4.746;2022-11-20T12:13:53;11.50;99.90
24049;DHT22;12250;50.956;4.746;2022-11-20T12:16:20;11.50;99.90
24049;DHT22;12250;50.956;4.746;2022-11-20T12:18:51;11.50;99.90
24049;DHT22;12250;50.956;4.746;2022-11-20T12:29:27;10.90;99.90
24049;DHT22;12250;50.956;4.746;2022-11-20T12:43:16;10.10;99.90
24049;DHT22;12250;50.956;4.746;2022-11-20T13:02:37;9.30;99.90
24049;DHT22;12250;50.956;4.746;2022-11-20T13:07:58;9.00;99.90
24049;DHT22;12250;50.956;4.746;2022-11-20T13:10:43;9.00;99.90
24049;DHT22;12250;50.956;4.746;2022-11-20T13:13:31;9.00;99.90
24049;DHT22;12250;50.956;4.746;2022-11-20T13:18:39;9.00;99.90
24049;DHT22;12250;50.956;4.746;2022-11-20T13:24:19;8.80;99.90
24049;DHT22;12250;50.956;4.746;2022-11-20T13:27:00;8.90;99.90
24049;DHT22;12250;50.956;4.746;2022-11-20T13:29:26;8.80;99.90
24049;DHT22;12250;50.956;4.746;2022-11-20T13:32:15;8.80;99.90
24049;DHT22;12250;50.956;4.746;2022-11-20T13:34:57;8.80;99.90
24049;DHT22;12250;50.956;4.746;2022-11-20T13:37:34;8.90;99.90
24049;DHT22;12250;50.956;4.746;2022-11-20T13:45:55;9.10;99.90
24049;DHT22;12250;50.956;4.746;2022-11-20T13:48:23;9.10;99.90
24049;DHT22;12250;50.956;4.746;2022-11-20T13:50:58;9.20;99.90
24049;DHT22;12250;50.956;4.746;2022-11-20T13:59:43;8.90;99.90
24049;DHT22;12250;50.956;4.746;2022-11-20T14:02:15;8.90;99.90
24049;DHT22;12250;50.956;4.746;2022-11-20T14:04:49;8.80;99.90
24049;DHT22;12250;50.956;4.746;2022-11-20T14:07:17;8.80;99.90
24049;DHT22;12250;50.956;4.746;2022-11-20T14:09:55;8.80;99.90
24049;DHT22;12250;50.956;4.746;2022-11-20T14:12:27;8.80;99.90
24049;DHT22;12250;50.956;4.746;2022-11-20T14:14:53;8.80;99.90
24049;DHT22;12250;50.956;4.746;2022-11-20T14:19:55;8.90;99.90
24049;DHT22;12250;50.956;4.746;2022-11-20T14:22:25;8.90;99.90
24049;DHT22;12250;50.956;4.746;2022-11-20T14:27:41;8.80;99.90
24049;DHT22;12250;50.956;4.746;2022-11-20T14:30:43;8.80;99.90
24049;DHT22;12250;50.956;4.746;2022-11-20T14:33:11;8.90;99.90
24049;DHT22;12250;50.956;4.746;2022-11-20T14:35:50;8.90;99.90
24049;DHT22;12250;50.956;4.746;2022-11-20T14:38:18;8.90;99.90
24049;DHT22;12250;50.956;4.746;2022-11-20T14:40:45;8.90;99.90
24049;DHT22;12250;50.956;4.746;2022-11-20T14:43:27;8.90;99.90
24049;DHT22;12250;50.956;4.746;2022-11-20T14:45:58;9.00;99.90
24049;DHT22;12250;50.956;4.746;2022-11-20T14:48:32;8.90;99.90
24049;DHT22;12250;50.956;4.746;2022-11-20T14:50:59;8.80;99.90
24049;DHT22;12250;50.956;4.746;2022-11-20T14:53:25;8.80;99.90
24049;DHT22;12250;50.956;4.746;2022-11-20T14:55:59;8.80;99.90
24049;DHT22;12250;50.956;4.746;2022-11-20T14:58:30;8.90;99.90
24049;DHT22;12250;50.956;4.746;2022-11-20T15:01:05;8.90;99.90
24049;DHT22;12250;50.956;4.746;2022-11-20T15:03:40;8.90;99.90
24049;DHT22;12250;50.956;4.746;2022-11-20T15:06:09;8.80;99.90
24049;DHT22;12250;50.956;4.746;2022-11-20T15:08:35;8.90;99.90
24049;DHT22;12250;50.956;4.746;2022-11-20T15:11:01;9.00;99.90
24049;DHT22;12250;50.956;4.746;2022-11-20T15:13:38;8.90;99.90
24049;DHT22;12250;50.956;4.746;2022-11-20T15:16:20;8.90;99.90
24049;DHT22;12250;50.956;4.746;2022-11-20T15:18:46;8.90;99.90
24049;DHT22;12250;50.956;4.746;2022-11-20T15:21:15;9.00;99.90
24049;DHT22;12250;50.956;4.746;2022-11-20T15:23:42;9.00;99.90
24049;DHT22;12250;50.956;4.746;2022-11-20T15:26:09;9.10;99.90
24049;DHT22;12250;50.956;4.746;2022-11-20T15:28:37;9.10;99.90
24049;DHT22;12250;50.956;4.746;2022-11-20T15:31:04;9.10;99.90
24049;DHT22;12250;50.956;4.746;2022-11-20T15:33:32;9.10;99.90
24049;DHT22;12250;50.956;4.746;2022-11-20T15:35:58;9.10;99.90
24049;DHT22;12250;50.956;4.746;2022-11-20T15:38:24;9.20;99.90
24049;DHT22;12250;50.956;4.746;2022-11-20T15:40:50;9.10;99.90
24049;DHT22;12250;50.956;4.746;2022-11-20T15:43:15;9.20;99.90
24049;DHT22;12250;50.956;4.746;2022-11-20T15:45:46;9.10;99.90
24049;DHT22;12250;50.956;4.746;2022-11-20T15:49:05;9.20;99.90
24049;DHT22;12250;50.956;4.746;2022-11-20T15:53:41;9.20;99.90
24049;DHT22;12250;50.956;4.746;2022-11-20T15:56:14;9.10;99.90
24049;DHT22;12250;50.956;4.746;2022-11-20T15:58:40;9.20;99.90
24049;DHT22;12250;50.956;4.746;2022-11-20T16:01:20;9.30;99.90
24049;DHT22;12250;50.956;4.746;2022-11-20T16:03:46;9.30;99.90
24049;DHT22;12250;50.956;4.746;2022-11-20T16:06:12;9.30;99.90
24049;DHT22;12250;50.956;4.746;2022-11-20T16:08:38;9.30;99.90
24049;DHT22;12250;50.956;4.746;2022-11-20T16:11:04;9.30;99.90
24049;DHT22;12250;50.956;4.746;2022-11-20T16:13:31;9.30;99.90
24049;DHT22;12250;50.956;4.746;2022-11-20T16:16:23;9.30;99.90
24049;DHT22;12250;50.956;4.746;2022-11-20T16:18:51;9.20;99.90
24049;DHT22;12250;50.956;4.746;2022-11-20T16:21:16;9.20;99.90
24049;DHT22;12250;50.956;4.746;2022-11-20T16:23:42;9.10;99.90
24049;DHT22;12250;50.956;4.746;2022-11-20T16:26:12;8.90;99.90
24049;DHT22;12250;50.956;4.746;2022-11-20T16:28:38;8.90;99.90
24049;DHT22;12250;50.956;4.746;2022-11-20T16:31:15;9.00;99.90
24049;DHT22;12250;50.956;4.746;2022-11-20T16:33:41;9.00;99.90
24049;DHT22;12250;50.956;4.746;2022-11-20T16:36:09;9.00;99.90
24049;DHT22;12250;50.956;4.746;2022-11-20T16:38:34;8.90;99.90
24049;DHT22;12250;50.956;4.746;2022-11-20T16:41:01;8.90;99.90
24049;DHT22;12250;50.956;4.746;2022-11-20T16:43:27;9.00;99.90
24049;DHT22;12250;50.956;4.746;2022-11-20T16:45:52;8.90;99.90
24049;DHT22;12250;50.956;4.746;2022-11-20T16:48:18;8.90;99.90
24049;DHT22;12250;50.956;4.746;2022-11-20T16:50:51;8.80;99.90
24049;DHT22;12250;50.956;4.746;2022-11-20T16:53:19;8.80;99.90
24049;DHT22;12250;50.956;4.746;2022-11-20T16:55:45;8.70;99.90
24049;DHT22;12250;50.956;4.746;2022-11-20T16:58:11;8.70;99.90
24049;DHT22;12250;50.956;4.746;2022-11-20T17:00:38;8.70;99.90
24049;DHT22;12250;50.956;4.746;2022-11-20T17:03:05;8.70;99.90
24049;DHT22;12250;50.956;4.746;2022-11-20T17:05:31;8.80;99.90
24049;DHT22;12250;50.956;4.746;2022-11-20T17:07:56;9.00;99.90
24049;DHT22;12250;50.956;4.746;2022-11-20T17:10:22;9.10;99.90
24049;DHT22;12250;50.956;4.746;2022-11-20T17:12:48;9.10;99.90
24049;DHT22;12250;50.956;4.746;2022-11-20T17:15:13;9.10;99.90
24049;DHT22;12250;50.956;4.746;2022-11-20T17:17:39;9.10;99.90
24049;DHT22;12250;50.956;4.746;2022-11-20T17:20:05;9.10;99.90
24049;DHT22;12250;50.956;4.746;2022-11-20T17:22:31;9.10;99.90
24049;DHT22;12250;50.956;4.746;2022-11-20T17:24:57;9.10;99.90
24049;DHT22;12250;50.956;4.746;2022-11-20T17:27:22;9.10;99.90
24049;DHT22;12250;50.956;4.746;2022-11-20T17:29:48;9.10;99.90
24049;DHT22;12250;50.956;4.746;2022-11-20T17:32:14;9.20;99.90
24049;DHT22;12250;50.956;4.746;2022-11-20T17:34:40;9.10;99.90
24049;DHT22;12250;50.956;4.746;2022-11-20T17:37:05;9.00;99.90
24049;DHT22;12250;50.956;4.746;2022-11-20T17:39:31;8.90;99.90
24049;DHT22;12250;50.956;4.746;2022-11-20T17:41:57;8.80;99.90
24049;DHT22;12250;50.956;4.746;2022-11-20T17:44:41;8.60;99.90
24049;DHT22;12250;50.956;4.746;2022-11-20T17:47:07;8.50;99.90
24049;DHT22;12250;50.956;4.746;2022-11-20T17:49:33;8.50;99.90
24049;DHT22;12250;50.956;4.746;2022-11-20T17:51:58;8.50;99.90
24049;DHT22;12250;50.956;4.746;2022-11-20T17:54:24;8.40;99.90